createdAt,value
2022-11-20T00:02:18.359Z,16.85
2022-11-20T00:07:25.075Z,16.81
2022-11-20T00:12:32.431Z,16.78
2022-11-20T00:17:39.379Z,16.73
2022-11-20T00:22:46.181Z,16.70
2022-11-20T00:27:53.251Z,16.68
2022-11-20T00:33:01.157Z,16.65
2022-11-20T00:38:08.458Z,16.61
2022-11-20T00:43:15.569Z,16.57
2022-11-20T00:48:22.855Z,16.55
2022-11-20T00:53:29.902Z,16.51
2022-11-20T00:58:38.528Z,16.47
2022-11-20T01:03:46.922Z,16.43
2022-11-20T01:08:55.153Z,16.40
2022-11-20T01:14:02.565Z,16.38
2022-11-20T01:19:10.047Z,16.34
2022-11-20T01:24:17.577Z,16.31
2022-11-20T01:29:25.486Z,16.28
2022-11-20T01:34:32.709Z,16.25
2022-11-20T01:39:39.630Z,16.20
2022-11-20T01:44:50.194Z,16.20
2022-11-20T01:50:00.090Z,16.16
2022-11-20T01:55:09.320Z,16.12
2022-11-20T02:00:18.276Z,16.09
2022-11-20T02:05:26.897Z,16.07
2022-11-20T02:10:33.746Z,16.02
2022-11-20T02:15:40.979Z,16.01
2022-11-20T02:20:49.912Z,15.96
2022-11-20T02:25:58.624Z,15.95
2022-11-20T02:31:05.826Z,15.93
2022-11-20T02:36:14.451Z,15.91
2022-11-20T02:41:21.848Z,15.87
2022-11-20T02:46:28.710Z,15.86
2022-11-20T02:51:35.621Z,15.83
2022-11-20T02:56:42.608Z,15.79
2022-11-20T03:01:49.498Z,15.78
2022-11-20T03:06:56.837Z,15.74
2022-11-20T03:12:04.264Z,15.73
2022-11-20T03:17:11.721Z,15.70
2022-11-20T03:22:18.928Z,15.67
2022-11-20T03:27:26.011Z,15.67
2022-11-20T03:32:33.067Z,15.63
2022-11-20T03:37:40.121Z,15.61
2022-11-20T03:42:50.195Z,15.60
2022-11-20T03:47:57.378Z,15.58
2022-11-20T03:53:04.787Z,15.53
2022-11-20T03:58:11.758Z,15.54
2022-11-20T04:03:18.748Z,15.50
2022-11-20T04:08:25.558Z,15.51
2022-11-20T04:13:32.728Z,15.48
2022-11-20T04:18:39.891Z,15.46
2022-11-20T04:23:46.874Z,15.44
2022-11-20T04:28:53.948Z,15.42
2022-11-20T04:34:03.923Z,15.39
2022-11-20T04:39:15.139Z,15.38
2022-11-20T04:44:22.312Z,15.36
2022-11-20T04:49:29.270Z,15.36
2022-11-20T04:54:36.091Z,15.34
2022-11-20T04:59:43.000Z,15.33
2022-11-20T05:04:49.998Z,15.29
2022-11-20T05:09:56.897Z,15.28
2022-11-20T05:15:03.808Z,15.25
2022-11-20T05:20:12.032Z,15.23
2022-11-20T05:25:19.131Z,15.21
2022-11-20T05:30:26.128Z,15.19
2022-11-20T05:35:33.048Z,15.17
2022-11-20T05:40:39.908Z,15.16
2022-11-20T05:45:54.828Z,15.10
2022-11-20T05:51:02.408Z,15.10
2022-11-20T05:56:11.307Z,15.09
2022-11-20T06:01:19.479Z,15.06
2022-11-20T06:06:27.379Z,15.03
2022-11-20T06:11:34.690Z,15.04
2022-11-20T06:16:41.878Z,14.99
2022-11-20T06:21:50.248Z,14.98
2022-11-20T06:26:57.019Z,14.96
2022-11-20T06:32:03.948Z,14.95
2022-11-20T06:37:10.827Z,14.95
2022-11-20T06:42:17.669Z,14.93
2022-11-20T06:47:24.618Z,14.91
2022-11-20T06:52:31.428Z,14.89
2022-11-20T06:57:38.427Z,14.88
2022-11-20T07:02:45.357Z,14.87
2022-11-20T07:07:52.392Z,14.85
2022-11-20T07:12:59.671Z,14.88
2022-11-20T07:18:07.049Z,14.88
2022-11-20T07:23:14.072Z,14.88
2022-11-20T07:28:21.593Z,14.87
2022-11-20T07:33:29.095Z,14.87
2022-11-20T07:38:35.940Z,14.86
2022-11-20T07:43:43.028Z,14.83
2022-11-20T07:48:49.967Z,14.81
2022-11-20T07:53:56.837Z,14.81
2022-11-20T07:59:03.760Z,14.79
2022-11-20T08:04:10.847Z,14.80
2022-11-20T08:09:17.922Z,14.78
2022-11-20T08:14:25.102Z,14.77
2022-11-20T08:19:32.009Z,14.77
2022-11-20T08:24:39.170Z,14.77
2022-11-20T08:29:46.433Z,14.78
2022-11-20T08:34:53.972Z,14.78
2022-11-20T08:40:00.908Z,14.77
2022-11-20T08:45:08.608Z,14.77
2022-11-20T08:50:16.478Z,14.77
2022-11-20T08:55:23.386Z,14.78
2022-11-20T09:00:30.542Z,14.76
2022-11-20T09:05:37.677Z,14.75
2022-11-20T09:10:45.189Z,14.73
2022-11-20T09:15:55.547Z,14.71
2022-11-20T09:21:03.073Z,14.69
2022-11-20T09:26:11.895Z,14.68
2022-11-20T09:31:23.267Z,14.66
2022-11-20T09:36:30.277Z,14.65
2022-11-20T09:41:51.793Z,14.62
2022-11-20T09:47:01.949Z,14.60
2022-11-20T09:52:15.788Z,14.58
2022-11-20T09:57:24.637Z,14.57
2022-11-20T10:02:33.817Z,14.54
2022-11-20T10:07:43.996Z,14.52
2022-11-20T10:13:01.578Z,14.51
2022-11-20T10:18:19.707Z,14.48
2022-11-20T10:23:32.987Z,14.49
2022-11-20T10:28:57.127Z,14.47
2022-11-20T10:34:12.666Z,14.47
2022-11-20T10:39:24.092Z,14.45
2022-11-20T10:45:04.183Z,14.43
2022-11-20T10:50:22.279Z,14.43
2022-11-20T10:55:33.099Z,14.41
2022-11-20T11:00:40.610Z,14.39
2022-11-20T11:05:52.031Z,14.38
2022-11-20T11:11:00.147Z,14.38
2022-11-20T11:16:07.456Z,14.36
2022-11-20T11:21:14.519Z,14.34
2022-11-20T11:26:23.743Z,14.34
2022-11-20T11:31:31.708Z,14.34
2022-11-20T11:36:38.888Z,14.35
2022-11-20T11:41:46.225Z,14.34
2022-11-20T11:46:56.101Z,14.33
2022-11-20T11:52:11.530Z,14.29
2022-11-20T11:57:23.963Z,14.28
2022-11-20T12:02:35.996Z,14.27
2022-11-20T12:07:47.063Z,14.27
2022-11-20T12:12:57.414Z,14.24
2022-11-20T12:18:04.965Z,14.21
2022-11-20T12:23:18.138Z,14.20
2022-11-20T12:28:33.557Z,14.19
2022-11-20T12:33:50.527Z,14.18
2022-11-20T12:39:12.168Z,14.16
2022-11-20T12:44:46.402Z,14.15
2022-11-20T12:49:59.848Z,14.14
2022-11-20T12:55:25.051Z,14.11
2022-11-20T13:00:34.807Z,14.10
2022-11-20T13:05:49.014Z,14.08
2022-11-20T13:10:59.378Z,14.06
2022-11-20T13:16:13.417Z,14.06
2022-11-20T13:21:22.871Z,14.03
2022-11-20T13:26:30.206Z,14.02
2022-11-20T13:31:38.318Z,14.00
2022-11-20T13:36:53.972Z,13.99
2022-11-20T13:42:01.738Z,13.96
2022-11-20T13:47:23.102Z,13.93
2022-11-20T13:52:43.311Z,13.93
2022-11-20T13:58:12.151Z,13.91
2022-11-20T14:03:43.760Z,13.89
2022-11-20T14:08:49.497Z,13.88
2022-11-20T14:14:00.447Z,13.85
2022-11-20T14:24:39.756Z,13.86
2022-11-20T14:29:47.408Z,13.80
2022-11-20T14:34:54.168Z,13.77
2022-11-20T14:40:02.168Z,13.76
2022-11-20T14:45:14.188Z,13.73
2022-11-20T14:50:24.465Z,13.72
2022-11-20T14:55:32.879Z,13.71
2022-11-20T15:00:40.086Z,13.70
2022-11-20T15:05:51.431Z,13.68
2022-11-20T15:10:58.838Z,13.65
2022-11-20T15:16:07.028Z,13.64
2022-11-20T15:21:14.619Z,13.63
2022-11-20T15:26:24.518Z,13.63
2022-11-20T15:31:31.738Z,13.60
2022-11-20T15:36:39.089Z,13.58
2022-11-20T15:41:46.092Z,13.56
2022-11-20T15:46:52.952Z,13.55
2022-11-20T15:51:59.926Z,13.55
2022-11-20T15:57:07.682Z,13.54
2022-11-20T16:02:19.120Z,13.52
2022-11-20T16:07:26.579Z,13.51
2022-11-20T16:12:51.052Z,13.50
2022-11-20T16:17:57.917Z,13.48
2022-11-20T16:23:05.009Z,13.48
2022-11-20T16:28:17.447Z,13.46
2022-11-20T16:33:26.057Z,13.45
2022-11-20T16:38:33.359Z,13.43
2022-11-20T16:43:43.987Z,13.41
2022-11-20T16:48:54.689Z,13.41
2022-11-20T16:54:03.638Z,13.40
2022-11-20T16:59:11.228Z,13.38
2022-11-20T17:04:18.089Z,13.37
2022-11-20T17:09:25.229Z,13.36
2022-11-20T17:14:32.209Z,13.35
2022-11-20T17:19:39.183Z,13.34
2022-11-20T17:24:46.198Z,13.32
2022-11-20T17:29:55.238Z,13.32
2022-11-20T17:35:02.227Z,13.30
2022-11-20T17:40:09.868Z,13.30
2022-11-20T17:45:16.669Z,13.28
2022-11-20T17:50:23.480Z,13.27
2022-11-20T17:55:55.690Z,13.25
2022-11-20T18:01:08.165Z,13.26
2022-11-20T18:06:16.608Z,13.23
2022-11-20T18:11:24.648Z,13.22
2022-11-20T18:16:33.677Z,13.19
2022-11-20T18:21:40.702Z,13.17
2022-11-20T18:26:47.950Z,13.16
2022-11-20T18:31:54.929Z,13.15
2022-11-20T18:37:02.291Z,13.13
2022-11-20T18:42:26.856Z,13.13
2022-11-20T18:47:36.496Z,13.11
2022-11-20T18:52:44.946Z,13.11
2022-11-20T18:57:51.936Z,13.09
2022-11-20T19:02:59.243Z,13.07
2022-11-20T19:08:06.247Z,13.06
2022-11-20T19:13:13.352Z,13.05
2022-11-20T19:18:20.788Z,13.02
2022-11-20T19:23:28.051Z,13.01
2022-11-20T19:28:35.632Z,13.00
2022-11-20T19:33:43.438Z,12.99
2022-11-20T19:38:51.438Z,12.98
2022-11-20T19:43:59.659Z,12.97
2022-11-20T19:49:07.137Z,12.96
2022-11-20T19:54:14.568Z,12.93
2022-11-20T19:59:21.848Z,12.91
2022-11-20T20:04:29.443Z,12.91
2022-11-20T20:09:36.512Z,12.89
2022-11-20T20:14:43.559Z,12.88
2022-11-20T20:19:51.051Z,12.87
2022-11-20T20:24:58.328Z,12.86
2022-11-20T20:30:05.226Z,12.86
2022-11-20T20:35:12.556Z,12.85
2022-11-20T20:40:22.772Z,12.83
2022-11-20T20:45:29.718Z,12.82
2022-11-20T20:50:36.567Z,12.81
2022-11-20T20:55:43.407Z,12.80
2022-11-20T21:00:50.606Z,12.78
2022-11-20T21:05:58.841Z,12.79
2022-11-20T21:11:06.937Z,12.78
2022-11-20T21:16:14.350Z,12.77
2022-11-20T21:21:39.691Z,12.76
2022-11-20T21:26:46.509Z,12.75
2022-11-20T21:31:54.540Z,12.75
2022-11-20T21:37:01.751Z,12.73
2022-11-20T21:42:08.602Z,12.72
2022-11-20T21:47:15.939Z,12.72
2022-11-20T21:52:22.859Z,12.70
2022-11-20T21:57:29.806Z,12.69
2022-11-20T22:02:36.778Z,12.67
2022-11-20T22:07:46.728Z,12.66
2022-11-20T22:13:15.139Z,12.66
2022-11-20T22:18:23.030Z,12.67
2022-11-20T22:23:30.015Z,12.65
2022-11-20T22:28:37.130Z,12.62
2022-11-20T22:33:43.949Z,12.61
2022-11-20T22:38:51.007Z,12.60
2022-11-20T22:43:58.678Z,12.59
2022-11-20T22:49:06.468Z,12.57
2022-11-20T22:54:14.488Z,12.57
2022-11-20T22:59:21.767Z,12.56
2022-11-20T23:04:28.821Z,12.55
2022-11-20T23:09:36.198Z,12.54
2022-11-20T23:14:43.881Z,12.53
2022-11-20T23:19:50.788Z,12.53
2022-11-20T23:24:57.705Z,12.51
2022-11-20T23:30:04.751Z,12.50
2022-11-20T23:35:11.991Z,12.49
2022-11-20T23:40:19.217Z,12.49
2022-11-20T23:45:26.157Z,12.48
2022-11-20T23:50:32.906Z,12.46
2022-11-20T23:55:40.018Z,12.45
